CKZ6 weather

Louise Municipal Airport
Crystal City-Pilot Mound, Manitoba, Canada

Public forecast

Using degrees Celsius for public forecast. Weather courtesy of forecast.io.

Closest aviation weather report (METAR) to Louise Municipal Airport

Closest report is Robertson Field, 30.5 nm (56.5 km) SE. Retrieved 2020/06/04 04:35 UTC (3 minutes ago):

KD55 040435Z AUTO 30013KT 10SM CLR 18/02 A2972 RMK AO2

Closest aviation forecast (TAF) to Louise Municipal Airport

Forecast is more than 6 hours old.

Closest forecast is Southport Airport, 51.2 nm (94.8 km) NNE. Retrieved 2020/06/03 18:33 UTC (10 hours ago):

TAF TAF CYPG 031731Z 0318/0406 14012G22KT P6SM FEW060 SCT250 FM031900 20015G25KT P6SM BKN090 TEMPO 0319/0322 P6SM -SHRA PROB40 0319/0322 VRB20G35KT 2SM TSRA BR OVC050CB FM032200 20015G25KT P6SM BKN090 PROB30 0322/0401 VRB20G35KT 2SM TSRA BR OVC050CB FM040100 26012G22KT P6SM FEW060 SCT200 BECMG 0401/0403 31012KT RMK NXT FCST BY 040000Z